sensor_id;sensor_type;location;lat;lon;timestamp;temperature;humidity
5508;DHT22;2776;51.046;6.772;2023-03-31T00:00:33;11.30;99.90
5508;DHT22;2776;51.046;6.772;2023-03-31T00:03:00;11.40;99.90
5508;DHT22;2776;51.046;6.772;2023-03-31T00:05:27;11.40;99.90
5508;DHT22;2776;51.046;6.772;2023-03-31T00:07:54;11.50;99.90
5508;DHT22;2776;51.046;6.772;2023-03-31T00:10:25;11.50;99.90
5508;DHT22;2776;51.046;6.772;2023-03-31T00:12:52;11.50;99.90
5508;DHT22;2776;51.046;6.772;2023-03-31T00:15:20;11.50;99.90
5508;DHT22;2776;51.046;6.772;2023-03-31T00:17:47;11.40;99.90
5508;DHT22;2776;51.046;6.772;2023-03-31T00:20:13;11.40;99.90
5508;DHT22;2776;51.046;6.772;2023-03-31T00:22:40;11.40;99.90
5508;DHT22;2776;51.046;6.772;2023-03-31T00:25:11;11.40;99.90
5508;DHT22;2776;51.046;6.772;2023-03-31T00:27:40;11.40;99.90
5508;DHT22;2776;51.046;6.772;2023-03-31T00:30:09;11.30;99.90
5508;DHT22;2776;51.046;6.772;2023-03-31T00:32:38;11.20;99.90
5508;DHT22;2776;51.046;6.772;2023-03-31T00:35:05;11.20;99.90
5508;DHT22;2776;51.046;6.772;2023-03-31T00:37:33;11.20;99.90
5508;DHT22;2776;51.046;6.772;2023-03-31T00:40:00;11.30;99.90
5508;DHT22;2776;51.046;6.772;2023-03-31T00:42:27;11.20;99.90
5508;DHT22;2776;51.046;6.772;2023-03-31T00:45:23;11.30;99.90
5508;DHT22;2776;51.046;6.772;2023-03-31T00:47:55;11.40;99.90
5508;DHT22;2776;51.046;6.772;2023-03-31T00:50:25;11.40;99.90
5508;DHT22;2776;51.046;6.772;2023-03-31T00:52:55;11.50;99.90
5508;DHT22;2776;51.046;6.772;2023-03-31T00:55:26;11.60;99.90
5508;DHT22;2776;51.046;6.772;2023-03-31T00:57:54;11.60;99.90
5508;DHT22;2776;51.046;6.772;2023-03-31T01:00:22;11.50;99.90
5508;DHT22;2776;51.046;6.772;2023-03-31T01:02:55;11.50;99.90
5508;DHT22;2776;51.046;6.772;2023-03-31T01:05:26;11.40;99.90
5508;DHT22;2776;51.046;6.772;2023-03-31T01:07:55;11.40;99.90
5508;DHT22;2776;51.046;6.772;2023-03-31T01:10:23;11.40;99.90
5508;DHT22;2776;51.046;6.772;2023-03-31T01:12:52;11.40;99.90
5508;DHT22;2776;51.046;6.772;2023-03-31T01:15:20;11.40;99.90
5508;DHT22;2776;51.046;6.772;2023-03-31T01:17:47;11.40;99.90
5508;DHT22;2776;51.046;6.772;2023-03-31T01:20:26;11.30;99.90
5508;DHT22;2776;51.046;6.772;2023-03-31T01:26:12;11.30;99.90
5508;DHT22;2776;51.046;6.772;2023-03-31T01:28:45;11.20;99.90
5508;DHT22;2776;51.046;6.772;2023-03-31T01:31:44;11.10;99.90
5508;DHT22;2776;51.046;6.772;2023-03-31T01:34:37;11.20;99.90
5508;DHT22;2776;51.046;6.772;2023-03-31T01:40:39;11.10;99.90
5508;DHT22;2776;51.046;6.772;2023-03-31T01:43:11;11.00;99.90
5508;DHT22;2776;51.046;6.772;2023-03-31T01:45:48;10.80;99.90
5508;DHT22;2776;51.046;6.772;2023-03-31T01:48:21;10.80;99.90
5508;DHT22;2776;51.046;6.772;2023-03-31T01:50:56;10.80;99.90
5508;DHT22;2776;51.046;6.772;2023-03-31T01:53:28;10.90;99.90
5508;DHT22;2776;51.046;6.772;2023-03-31T01:56:03;10.90;99.90
5508;DHT22;2776;51.046;6.772;2023-03-31T01:58:34;11.00;99.90
5508;DHT22;2776;51.046;6.772;2023-03-31T02:01:11;11.10;99.90
5508;DHT22;2776;51.046;6.772;2023-03-31T02:03:46;11.20;99.90
5508;DHT22;2776;51.046;6.772;2023-03-31T02:06:17;11.20;99.90
5508;DHT22;2776;51.046;6.772;2023-03-31T02:08:49;11.20;99.90
5508;DHT22;2776;51.046;6.772;2023-03-31T02:11:19;11.30;99.90
5508;DHT22;2776;51.046;6.772;2023-03-31T02:13:48;11.30;99.90
5508;DHT22;2776;51.046;6.772;2023-03-31T02:16:19;11.30;99.90
5508;DHT22;2776;51.046;6.772;2023-03-31T02:18:50;11.30;99.90
5508;DHT22;2776;51.046;6.772;2023-03-31T02:21:18;11.30;99.90
5508;DHT22;2776;51.046;6.772;2023-03-31T02:23:49;11.30;99.90
5508;DHT22;2776;51.046;6.772;2023-03-31T02:26:21;11.20;99.90
5508;DHT22;2776;51.046;6.772;2023-03-31T02:28:49;11.40;99.90
5508;DHT22;2776;51.046;6.772;2023-03-31T02:31:24;11.40;99.90
5508;DHT22;2776;51.046;6.772;2023-03-31T02:33:53;11.40;99.90
5508;DHT22;2776;51.046;6.772;2023-03-31T02:36:22;11.50;99.90
5508;DHT22;2776;51.046;6.772;2023-03-31T02:38:51;11.50;99.90
5508;DHT22;2776;51.046;6.772;2023-03-31T02:41:21;11.40;99.90
5508;DHT22;2776;51.046;6.772;2023-03-31T02:43:47;11.40;99.90
5508;DHT22;2776;51.046;6.772;2023-03-31T02:46:14;11.50;99.90
5508;DHT22;2776;51.046;6.772;2023-03-31T02:48:44;11.40;99.90
5508;DHT22;2776;51.046;6.772;2023-03-31T02:51:26;11.40;99.90
5508;DHT22;2776;51.046;6.772;2023-03-31T02:54:07;11.30;99.90
5508;DHT22;2776;51.046;6.772;2023-03-31T02:56:51;11.30;99.90
5508;DHT22;2776;51.046;6.772;2023-03-31T02:59:36;11.30;99.90
5508;DHT22;2776;51.046;6.772;2023-03-31T03:02:12;11.40;99.90
5508;DHT22;2776;51.046;6.772;2023-03-31T03:05:06;11.40;99.90
5508;DHT22;2776;51.046;6.772;2023-03-31T03:07:40;11.40;99.90
5508;DHT22;2776;51.046;6.772;2023-03-31T03:10:14;11.30;99.90
5508;DHT22;2776;51.046;6.772;2023-03-31T03:12:52;11.30;99.90
5508;DHT22;2776;51.046;6.772;2023-03-31T03:15:24;11.30;99.90
5508;DHT22;2776;51.046;6.772;2023-03-31T03:17:55;11.30;99.90
5508;DHT22;2776;51.046;6.772;2023-03-31T03:20:22;11.30;99.90
5508;DHT22;2776;51.046;6.772;2023-03-31T03:22:49;11.30;99.90
5508;DHT22;2776;51.046;6.772;2023-03-31T03:25:16;11.30;99.90
5508;DHT22;2776;51.046;6.772;2023-03-31T03:27:46;11.30;99.90
5508;DHT22;2776;51.046;6.772;2023-03-31T03:30:13;11.30;99.90
5508;DHT22;2776;51.046;6.772;2023-03-31T03:32:40;11.30;99.90
5508;DHT22;2776;51.046;6.772;2023-03-31T03:35:08;11.20;99.90
5508;DHT22;2776;51.046;6.772;2023-03-31T03:37:35;11.20;99.90
5508;DHT22;2776;51.046;6.772;2023-03-31T03:40:02;11.20;99.90
5508;DHT22;2776;51.046;6.772;2023-03-31T03:42:30;11.20;99.90
5508;DHT22;2776;51.046;6.772;2023-03-31T03:44:58;11.20;99.90
5508;DHT22;2776;51.046;6.772;2023-03-31T03:47:25;11.20;99.90
5508;DHT22;2776;51.046;6.772;2023-03-31T03:49:52;11.10;99.90
5508;DHT22;2776;51.046;6.772;2023-03-31T03:52:19;11.20;99.90
5508;DHT22;2776;51.046;6.772;2023-03-31T03:54:46;11.20;99.90
5508;DHT22;2776;51.046;6.772;2023-03-31T03:57:13;11.20;99.90
5508;DHT22;2776;51.046;6.772;2023-03-31T03:59:41;11.20;99.90
5508;DHT22;2776;51.046;6.772;2023-03-31T04:02:09;11.20;99.90
5508;DHT22;2776;51.046;6.772;2023-03-31T04:04:35;11.20;99.90
5508;DHT22;2776;51.046;6.772;2023-03-31T04:07:02;11.10;99.90
5508;DHT22;2776;51.046;6.772;2023-03-31T04:09:29;11.10;99.90
5508;DHT22;2776;51.046;6.772;2023-03-31T04:11:56;11.20;99.90
5508;DHT22;2776;51.046;6.772;2023-03-31T04:14:23;11.20;99.90
5508;DHT22;2776;51.046;6.772;2023-03-31T04:16:50;11.20;99.90
5508;DHT22;2776;51.046;6.772;2023-03-31T04:19:21;11.20;99.90
5508;DHT22;2776;51.046;6.772;2023-03-31T04:21:50;11.20;99.90
5508;DHT22;2776;51.046;6.772;2023-03-31T04:24:23;11.20;99.90
5508;DHT22;2776;51.046;6.772;2023-03-31T04:26:55;11.30;99.90
5508;DHT22;2776;51.046;6.772;2023-03-31T04:29:22;11.20;99.90
5508;DHT22;2776;51.046;6.772;2023-03-31T04:31:51;11.20;99.90
5508;DHT22;2776;51.046;6.772;2023-03-31T04:34:18;11.20;99.90
5508;DHT22;2776;51.046;6.772;2023-03-31T04:36:48;11.20;99.90
5508;DHT22;2776;51.046;6.772;2023-03-31T04:39:16;11.20;99.90
5508;DHT22;2776;51.046;6.772;2023-03-31T04:41:48;11.20;99.90
5508;DHT22;2776;51.046;6.772;2023-03-31T04:44:15;11.10;99.90
5508;DHT22;2776;51.046;6.772;2023-03-31T04:46:42;11.20;99.90
5508;DHT22;2776;51.046;6.772;2023-03-31T04:49:09;11.10;99.90
5508;DHT22;2776;51.046;6.772;2023-03-31T04:51:35;11.10;99.90
5508;DHT22;2776;51.046;6.772;2023-03-31T04:54:07;11.10;99.90
5508;DHT22;2776;51.046;6.772;2023-03-31T04:56:34;11.00;99.90
5508;DHT22;2776;51.046;6.772;2023-03-31T04:59:00;11.00;99.90
5508;DHT22;2776;51.046;6.772;2023-03-31T05:01:28;11.00;99.90
5508;DHT22;2776;51.046;6.772;2023-03-31T05:03:58;11.00;99.90
5508;DHT22;2776;51.046;6.772;2023-03-31T05:06:25;11.00;99.90
5508;DHT22;2776;51.046;6.772;2023-03-31T05:08:52;11.00;99.90
5508;DHT22;2776;51.046;6.772;2023-03-31T05:11:20;11.00;99.90
5508;DHT22;2776;51.046;6.772;2023-03-31T05:13:47;11.00;99.90
5508;DHT22;2776;51.046;6.772;2023-03-31T05:16:14;11.00;99.90
5508;DHT22;2776;51.046;6.772;2023-03-31T05:18:41;11.00;99.90
5508;DHT22;2776;51.046;6.772;2023-03-31T05:21:10;11.10;99.90
5508;DHT22;2776;51.046;6.772;2023-03-31T05:23:37;11.10;99.90
5508;DHT22;2776;51.046;6.772;2023-03-31T05:26:04;11.10;99.90
5508;DHT22;2776;51.046;6.772;2023-03-31T05:28:33;11.10;99.90
5508;DHT22;2776;51.046;6.772;2023-03-31T05:31:01;11.10;99.90
5508;DHT22;2776;51.046;6.772;2023-03-31T05:33:28;11.10;99.90
5508;DHT22;2776;51.046;6.772;2023-03-31T05:35:55;11.10;99.90
5508;DHT22;2776;51.046;6.772;2023-03-31T05:38:24;11.10;99.90
5508;DHT22;2776;51.046;6.772;2023-03-31T05:40:53;11.10;99.90
5508;DHT22;2776;51.046;6.772;2023-03-31T05:43:20;11.20;99.90
5508;DHT22;2776;51.046;6.772;2023-03-31T05:45:48;11.20;99.90
5508;DHT22;2776;51.046;6.772;2023-03-31T05:48:15;11.10;99.90
5508;DHT22;2776;51.046;6.772;2023-03-31T05:50:42;11.20;99.90
5508;DHT22;2776;51.046;6.772;2023-03-31T05:53:09;11.30;99.90
5508;DHT22;2776;51.046;6.772;2023-03-31T05:55:37;11.20;99.90
5508;DHT22;2776;51.046;6.772;2023-03-31T05:58:04;11.30;99.90
5508;DHT22;2776;51.046;6.772;2023-03-31T06:00:32;11.30;99.90
5508;DHT22;2776;51.046;6.772;2023-03-31T06:03:01;11.30;99.90
5508;DHT22;2776;51.046;6.772;2023-03-31T06:05:28;11.30;99.90
5508;DHT22;2776;51.046;6.772;2023-03-31T06:07:55;11.20;99.90
5508;DHT22;2776;51.046;6.772;2023-03-31T06:10:22;11.20;99.90
5508;DHT22;2776;51.046;6.772;2023-03-31T06:12:49;11.20;99.90
5508;DHT22;2776;51.046;6.772;2023-03-31T06:15:15;11.20;99.90
5508;DHT22;2776;51.046;6.772;2023-03-31T06:17:42;11.20;99.90
5508;DHT22;2776;51.046;6.772;2023-03-31T06:20:11;11.20;99.90
5508;DHT22;2776;51.046;6.772;2023-03-31T06:22:37;11.00;99.90
5508;DHT22;2776;51.046;6.772;2023-03-31T06:25:05;10.90;99.90
5508;DHT22;2776;51.046;6.772;2023-03-31T06:27:32;10.80;99.90
5508;DHT22;2776;51.046;6.772;2023-03-31T06:29:58;10.90;99.90
5508;DHT22;2776;51.046;6.772;2023-03-31T06:32:25;10.90;99.90
5508;DHT22;2776;51.046;6.772;2023-03-31T06:34:52;10.90;99.90
5508;DHT22;2776;51.046;6.772;2023-03-31T06:37:20;11.00;99.90
5508;DHT22;2776;51.046;6.772;2023-03-31T06:39:46;11.00;99.90
5508;DHT22;2776;51.046;6.772;2023-03-31T06:42:13;11.00;99.90
5508;DHT22;2776;51.046;6.772;2023-03-31T06:44:40;11.00;99.90
5508;DHT22;2776;51.046;6.772;2023-03-31T06:47:07;11.00;99.90
5508;DHT22;2776;51.046;6.772;2023-03-31T06:49:34;10.90;99.90
5508;DHT22;2776;51.046;6.772;2023-03-31T06:52:00;10.90;99.90
5508;DHT22;2776;51.046;6.772;2023-03-31T06:54:29;11.00;99.90
5508;DHT22;2776;51.046;6.772;2023-03-31T06:56:56;11.00;99.90
5508;DHT22;2776;51.046;6.772;2023-03-31T06:59:23;11.00;99.90
5508;DHT22;2776;51.046;6.772;2023-03-31T07:01:50;11.00;99.90
5508;DHT22;2776;51.046;6.772;2023-03-31T07:04:16;11.00;99.90
5508;DHT22;2776;51.046;6.772;2023-03-31T07:06:43;11.20;99.90
5508;DHT22;2776;51.046;6.772;2023-03-31T07:09:10;11.20;99.90
5508;DHT22;2776;51.046;6.772;2023-03-31T07:11:38;11.30;99.90
5508;DHT22;2776;51.046;6.772;2023-03-31T07:14:05;11.30;99.90
5508;DHT22;2776;51.046;6.772;2023-03-31T07:16:31;11.40;99.90
5508;DHT22;2776;51.046;6.772;2023-03-31T07:19:00;11.50;99.90
5508;DHT22;2776;51.046;6.772;2023-03-31T07:21:28;11.60;99.90
5508;DHT22;2776;51.046;6.772;2023-03-31T07:23:54;11.60;99.90
5508;DHT22;2776;51.046;6.772;2023-03-31T07:26:21;11.80;99.90
5508;DHT22;2776;51.046;6.772;2023-03-31T07:28:50;12.00;99.90
5508;DHT22;2776;51.046;6.772;2023-03-31T07:31:17;12.20;99.90
5508;DHT22;2776;51.046;6.772;2023-03-31T07:33:44;12.40;99.90
5508;DHT22;2776;51.046;6.772;2023-03-31T07:36:10;12.40;99.90
5508;DHT22;2776;51.046;6.772;2023-03-31T07:38:37;12.60;99.90
5508;DHT22;2776;51.046;6.772;2023-03-31T07:41:08;12.80;99.90
5508;DHT22;2776;51.046;6.772;2023-03-31T07:43:35;13.10;99.90
5508;DHT22;2776;51.046;6.772;2023-03-31T07:46:03;13.30;99.90
5508;DHT22;2776;51.046;6.772;2023-03-31T07:48:32;13.50;99.90
5508;DHT22;2776;51.046;6.772;2023-03-31T07:50:59;14.40;99.90
5508;DHT22;2776;51.046;6.772;2023-03-31T07:53:25;15.50;99.90
5508;DHT22;2776;51.046;6.772;2023-03-31T07:55:52;15.80;99.90
5508;DHT22;2776;51.046;6.772;2023-03-31T07:58:19;15.80;99.90
5508;DHT22;2776;51.046;6.772;2023-03-31T08:00:46;16.10;99.90
5508;DHT22;2776;51.046;6.772;2023-03-31T08:03:14;15.70;99.90
5508;DHT22;2776;51.046;6.772;2023-03-31T08:05:40;15.40;99.90
5508;DHT22;2776;51.046;6.772;2023-03-31T08:08:07;15.00;99.90
5508;DHT22;2776;51.046;6.772;2023-03-31T08:10:34;14.80;99.90
5508;DHT22;2776;51.046;6.772;2023-03-31T08:13:01;14.40;99.90
5508;DHT22;2776;51.046;6.772;2023-03-31T08:15:28;14.10;99.90
5508;DHT22;2776;51.046;6.772;2023-03-31T08:17:54;14.00;99.90
5508;DHT22;2776;51.046;6.772;2023-03-31T08:20:23;13.80;99.90
5508;DHT22;2776;51.046;6.772;2023-03-31T08:22:49;13.70;99.90
5508;DHT22;2776;51.046;6.772;2023-03-31T08:25:16;13.70;99.90
5508;DHT22;2776;51.046;6.772;2023-03-31T08:27:43;13.60;99.90
5508;DHT22;2776;51.046;6.772;2023-03-31T08:30:11;13.60;99.90
5508;DHT22;2776;51.046;6.772;2023-03-31T08:32:38;13.60;99.90
5508;DHT22;2776;51.046;6.772;2023-03-31T08:35:06;13.60;99.90
5508;DHT22;2776;51.046;6.772;2023-03-31T08:37:36;13.70;99.90
5508;DHT22;2776;51.046;6.772;2023-03-31T08:40:04;13.60;99.90
5508;DHT22;2776;51.046;6.772;2023-03-31T08:42:36;13.60;99.90
5508;DHT22;2776;51.046;6.772;2023-03-31T08:45:08;13.80;99.90
5508;DHT22;2776;51.046;6.772;2023-03-31T08:47:37;13.90;99.90
5508;DHT22;2776;51.046;6.772;2023-03-31T08:50:07;14.10;99.90
5508;DHT22;2776;51.046;6.772;2023-03-31T08:52:41;14.40;99.90
5508;DHT22;2776;51.046;6.772;2023-03-31T08:55:12;14.80;99.90
5508;DHT22;2776;51.046;6.772;2023-03-31T08:57:53;15.00;99.90
5508;DHT22;2776;51.046;6.772;2023-03-31T09:00:22;15.20;99.90
5508;DHT22;2776;51.046;6.772;2023-03-31T09:02:54;15.50;99.90
5508;DHT22;2776;51.046;6.772;2023-03-31T09:05:36;15.50;99.90
5508;DHT22;2776;51.046;6.772;2023-03-31T09:08:12;15.30;99.90
5508;DHT22;2776;51.046;6.772;2023-03-31T09:10:49;15.00;99.90
5508;DHT22;2776;51.046;6.772;2023-03-31T09:16:23;15.00;99.90
5508;DHT22;2776;51.046;6.772;2023-03-31T09:18:53;14.90;99.90
5508;DHT22;2776;51.046;6.772;2023-03-31T09:21:25;14.90;99.90
5508;DHT22;2776;51.046;6.772;2023-03-31T09:24:00;15.10;99.90
5508;DHT22;2776;51.046;6.772;2023-03-31T09:26:35;15.10;99.90
5508;DHT22;2776;51.046;6.772;2023-03-31T09:29:06;15.20;99.90
5508;DHT22;2776;51.046;6.772;2023-03-31T09:31:37;15.30;99.90
5508;DHT22;2776;51.046;6.772;2023-03-31T09:34:12;15.50;99.90
5508;DHT22;2776;51.046;6.772;2023-03-31T09:36:38;15.50;99.90
5508;DHT22;2776;51.046;6.772;2023-03-31T09:39:11;15.60;99.90
5508;DHT22;2776;51.046;6.772;2023-03-31T09:41:40;15.80;99.90
5508;DHT22;2776;51.046;6.772;2023-03-31T09:44:24;15.90;99.90
5508;DHT22;2776;51.046;6.772;2023-03-31T09:46:52;16.00;99.90
5508;DHT22;2776;51.046;6.772;2023-03-31T09:49:22;16.10;99.90
5508;DHT22;2776;51.046;6.772;2023-03-31T09:52:02;16.10;99.90
5508;DHT22;2776;51.046;6.772;2023-03-31T09:54:47;15.70;99.90
5508;DHT22;2776;51.046;6.772;2023-03-31T09:57:42;15.50;99.90
5508;DHT22;2776;51.046;6.772;2023-03-31T10:00:14;15.10;99.90
5508;DHT22;2776;51.046;6.772;2023-03-31T10:02:43;15.00;99.90
5508;DHT22;2776;51.046;6.772;2023-03-31T10:05:30;14.90;99.90
5508;DHT22;2776;51.046;6.772;2023-03-31T10:08:20;14.70;99.90
5508;DHT22;2776;51.046;6.772;2023-03-31T10:10:49;14.80;99.90
5508;DHT22;2776;51.046;6.772;2023-03-31T10:13:19;14.90;99.90
5508;DHT22;2776;51.046;6.772;2023-03-31T10:15:46;15.10;99.90
5508;DHT22;2776;51.046;6.772;2023-03-31T10:18:19;15.30;99.90
5508;DHT22;2776;51.046;6.772;2023-03-31T10:20:49;15.40;99.90
5508;DHT22;2776;51.046;6.772;2023-03-31T10:23:17;15.50;99.90
5508;DHT22;2776;51.046;6.772;2023-03-31T10:25:48;15.80;99.90
5508;DHT22;2776;51.046;6.772;2023-03-31T10:28:19;15.90;99.90
5508;DHT22;2776;51.046;6.772;2023-03-31T10:30:48;16.20;99.90
5508;DHT22;2776;51.046;6.772;2023-03-31T10:33:18;16.60;99.90
5508;DHT22;2776;51.046;6.772;2023-03-31T10:35:47;16.50;99.90
5508;DHT22;2776;51.046;6.772;2023-03-31T10:38:20;16.50;99.90
5508;DHT22;2776;51.046;6.772;2023-03-31T10:40:50;16.40;99.90
5508;DHT22;2776;51.046;6.772;2023-03-31T10:43:20;16.20;99.90
5508;DHT22;2776;51.046;6.772;2023-03-31T10:45:49;16.10;99.90
5508;DHT22;2776;51.046;6.772;2023-03-31T10:48:18;16.00;99.90
5508;DHT22;2776;51.046;6.772;2023-03-31T10:50:48;15.80;99.90
5508;DHT22;2776;51.046;6.772;2023-03-31T10:53:16;15.50;99.90
5508;DHT22;2776;51.046;6.772;2023-03-31T10:55:52;14.80;99.90
5508;DHT22;2776;51.046;6.772;2023-03-31T10:58:32;14.30;99.90
5508;DHT22;2776;51.046;6.772;2023-03-31T11:01:10;13.60;99.90
5508;DHT22;2776;51.046;6.772;2023-03-31T11:06:49;12.80;99.90
5508;DHT22;2776;51.046;6.772;2023-03-31T11:09:31;12.30;99.90
5508;DHT22;2776;51.046;6.772;2023-03-31T11:12:04;12.00;99.90
5508;DHT22;2776;51.046;6.772;2023-03-31T11:14:43;11.70;99.90
5508;DHT22;2776;51.046;6.772;2023-03-31T11:17:20;11.40;99.90
5508;DHT22;2776;51.046;6.772;2023-03-31T11:19:56;11.30;99.90
5508;DHT22;2776;51.046;6.772;2023-03-31T11:22:36;11.30;99.90
5508;DHT22;2776;51.046;6.772;2023-03-31T11:25:21;11.30;99.90
5508;DHT22;2776;51.046;6.772;2023-03-31T11:27:58;11.50;99.90
5508;DHT22;2776;51.046;6.772;2023-03-31T11:30:31;11.80;99.90
5508;DHT22;2776;51.046;6.772;2023-03-31T11:33:14;12.10;99.90
5508;DHT22;2776;51.046;6.772;2023-03-31T11:35:57;12.40;99.90
5508;DHT22;2776;51.046;6.772;2023-03-31T11:38:43;12.80;99.90
5508;DHT22;2776;51.046;6.772;2023-03-31T11:41:15;13.00;99.90
5508;DHT22;2776;51.046;6.772;2023-03-31T11:43:45;13.20;99.90
5508;DHT22;2776;51.046;6.772;2023-03-31T11:46:18;13.30;99.90
5508;DHT22;2776;51.046;6.772;2023-03-31T11:48:48;13.50;99.90
5508;DHT22;2776;51.046;6.772;2023-03-31T11:51:19;13.70;99.90
5508;DHT22;2776;51.046;6.772;2023-03-31T11:53:48;13.90;99.90
5508;DHT22;2776;51.046;6.772;2023-03-31T11:56:17;14.10;99.90
5508;DHT22;2776;51.046;6.772;2023-03-31T11:58:46;14.40;99.90
5508;DHT22;2776;51.046;6.772;2023-03-31T12:01:18;14.60;99.90
5508;DHT22;2776;51.046;6.772;2023-03-31T12:03:53;14.70;99.90
5508;DHT22;2776;51.046;6.772;2023-03-31T12:06:26;14.70;99.90
5508;DHT22;2776;51.046;6.772;2023-03-31T12:09:02;14.70;99.90
5508;DHT22;2776;51.046;6.772;2023-03-31T12:11:35;14.50;99.90
5508;DHT22;2776;51.046;6.772;2023-03-31T12:14:20;14.40;99.90
5508;DHT22;2776;51.046;6.772;2023-03-31T12:16:52;14.40;99.90
5508;DHT22;2776;51.046;6.772;2023-03-31T12:19:21;14.50;99.90
5508;DHT22;2776;51.046;6.772;2023-03-31T12:21:54;14.60;99.90
5508;DHT22;2776;51.046;6.772;2023-03-31T12:24:21;14.60;99.90
5508;DHT22;2776;51.046;6.772;2023-03-31T12:26:55;14.60;99.90
5508;DHT22;2776;51.046;6.772;2023-03-31T12:29:28;14.50;99.90
5508;DHT22;2776;51.046;6.772;2023-03-31T12:32:00;14.30;99.90
5508;DHT22;2776;51.046;6.772;2023-03-31T12:34:29;14.20;99.90
5508;DHT22;2776;51.046;6.772;2023-03-31T12:40:20;14.30;99.90
5508;DHT22;2776;51.046;6.772;2023-03-31T12:43:02;14.40;99.90
5508;DHT22;2776;51.046;6.772;2023-03-31T12:45:36;14.70;99.90
5508;DHT22;2776;51.046;6.772;2023-03-31T12:48:15;14.90;99.90
5508;DHT22;2776;51.046;6.772;2023-03-31T12:50:55;15.10;99.90
5508;DHT22;2776;51.046;6.772;2023-03-31T12:53:27;15.20;99.90
5508;DHT22;2776;51.046;6.772;2023-03-31T12:55:58;15.40;99.90
5508;DHT22;2776;51.046;6.772;2023-03-31T12:58:42;15.40;99.90
5508;DHT22;2776;51.046;6.772;2023-03-31T13:01:12;15.40;99.90
5508;DHT22;2776;51.046;6.772;2023-03-31T13:03:50;15.40;99.90
5508;DHT22;2776;51.046;6.772;2023-03-31T13:06:45;15.40;99.90
5508;DHT22;2776;51.046;6.772;2023-03-31T13:09:37;15.20;99.90
5508;DHT22;2776;51.046;6.772;2023-03-31T13:12:06;14.90;99.90
5508;DHT22;2776;51.046;6.772;2023-03-31T13:14:36;14.90;99.90
5508;DHT22;2776;51.046;6.772;2023-03-31T13:17:17;14.90;99.90
5508;DHT22;2776;51.046;6.772;2023-03-31T13:19:48;14.90;99.90
5508;DHT22;2776;51.046;6.772;2023-03-31T13:22:32;14.80;99.90
5508;DHT22;2776;51.046;6.772;2023-03-31T13:28:33;14.80;99.90
5508;DHT22;2776;51.046;6.772;2023-03-31T13:31:04;14.90;99.90
5508;DHT22;2776;51.046;6.772;2023-03-31T13:33:34;15.10;99.90
5508;DHT22;2776;51.046;6.772;2023-03-31T13:42:02;15.40;99.90
5508;DHT22;2776;51.046;6.772;2023-03-31T13:45:04;15.40;99.90
5508;DHT22;2776;51.046;6.772;2023-03-31T13:57:42;15.30;99.90
5508;DHT22;2776;51.046;6.772;2023-03-31T14:00:29;15.40;99.90
5508;DHT22;2776;51.046;6.772;2023-03-31T14:03:22;15.40;99.90
5508;DHT22;2776;51.046;6.772;2023-03-31T14:06:24;15.40;99.90
5508;DHT22;2776;51.046;6.772;2023-03-31T14:09:09;15.50;99.90
5508;DHT22;2776;51.046;6.772;2023-03-31T14:11:53;15.50;99.90
5508;DHT22;2776;51.046;6.772;2023-03-31T14:14:33;15.30;99.90
5508;DHT22;2776;51.046;6.772;2023-03-31T14:17:28;15.10;99.90
5508;DHT22;2776;51.046;6.772;2023-03-31T14:20:25;15.00;99.90
5508;DHT22;2776;51.046;6.772;2023-03-31T14:23:15;15.00;99.90
5508;DHT22;2776;51.046;6.772;2023-03-31T14:26:00;14.80;99.90
5508;DHT22;2776;51.046;6.772;2023-03-31T14:28:57;14.80;99.90
5508;DHT22;2776;51.046;6.772;2023-03-31T14:31:48;14.80;99.90
5508;DHT22;2776;51.046;6.772;2023-03-31T14:37:41;14.70;99.90
5508;DHT22;2776;51.046;6.772;2023-03-31T14:40:14;14.70;99.90
5508;DHT22;2776;51.046;6.772;2023-03-31T14:42:54;14.70;99.90
5508;DHT22;2776;51.046;6.772;2023-03-31T14:45:33;14.60;99.90
5508;DHT22;2776;51.046;6.772;2023-03-31T14:48:16;14.50;99.90
5508;DHT22;2776;51.046;6.772;2023-03-31T14:50:59;14.50;99.90
5508;DHT22;2776;51.046;6.772;2023-03-31T14:53:31;14.50;99.90
5508;DHT22;2776;51.046;6.772;2023-03-31T14:56:12;14.40;99.90
5508;DHT22;2776;51.046;6.772;2023-03-31T14:58:45;14.40;99.90
5508;DHT22;2776;51.046;6.772;2023-03-31T15:01:26;14.40;99.90
5508;DHT22;2776;51.046;6.772;2023-03-31T15:04:09;14.30;99.90
5508;DHT22;2776;51.046;6.772;2023-03-31T15:06:46;14.30;99.90
5508;DHT22;2776;51.046;6.772;2023-03-31T15:09:21;14.30;99.90
5508;DHT22;2776;51.046;6.772;2023-03-31T15:11:55;14.30;99.90
5508;DHT22;2776;51.046;6.772;2023-03-31T15:14:25;14.10;99.90
5508;DHT22;2776;51.046;6.772;2023-03-31T15:16:58;13.80;99.90
5508;DHT22;2776;51.046;6.772;2023-03-31T15:19:35;13.00;99.90
5508;DHT22;2776;51.046;6.772;2023-03-31T15:22:15;12.70;99.90
5508;DHT22;2776;51.046;6.772;2023-03-31T15:24:48;12.40;99.90
5508;DHT22;2776;51.046;6.772;2023-03-31T15:27:36;12.40;99.90
5508;DHT22;2776;51.046;6.772;2023-03-31T15:30:17;12.40;99.90
5508;DHT22;2776;51.046;6.772;2023-03-31T15:33:00;12.30;99.90
5508;DHT22;2776;51.046;6.772;2023-03-31T15:35:41;12.30;99.90
5508;DHT22;2776;51.046;6.772;2023-03-31T15:38:18;12.40;99.90
5508;DHT22;2776;51.046;6.772;2023-03-31T15:40:57;12.50;99.90
5508;DHT22;2776;51.046;6.772;2023-03-31T15:43:48;12.60;99.90
5508;DHT22;2776;51.046;6.772;2023-03-31T15:49:20;12.60;99.90
5508;DHT22;2776;51.046;6.772;2023-03-31T15:51:57;12.60;99.90
5508;DHT22;2776;51.046;6.772;2023-03-31T15:54:36;12.40;99.90
5508;DHT22;2776;51.046;6.772;2023-03-31T15:57:09;12.40;99.90
5508;DHT22;2776;51.046;6.772;2023-03-31T15:59:48;12.30;99.90
5508;DHT22;2776;51.046;6.772;2023-03-31T16:02:41;12.30;99.90
5508;DHT22;2776;51.046;6.772;2023-03-31T16:05:33;12.40;99.90
5508;DHT22;2776;51.046;6.772;2023-03-31T16:08:16;12.30;99.90
5508;DHT22;2776;51.046;6.772;2023-03-31T16:11:00;12.40;99.90
5508;DHT22;2776;51.046;6.772;2023-03-31T16:13:52;12.40;99.90
5508;DHT22;2776;51.046;6.772;2023-03-31T16:16:44;12.60;99.90
5508;DHT22;2776;51.046;6.772;2023-03-31T16:19:21;12.60;99.90
5508;DHT22;2776;51.046;6.772;2023-03-31T16:22:03;12.60;99.90
5508;DHT22;2776;51.046;6.772;2023-03-31T16:24:45;12.70;99.90
5508;DHT22;2776;51.046;6.772;2023-03-31T16:27:24;12.60;99.90
5508;DHT22;2776;51.046;6.772;2023-03-31T16:30:08;12.70;99.90
5508;DHT22;2776;51.046;6.772;2023-03-31T16:33:03;12.60;99.90
5508;DHT22;2776;51.046;6.772;2023-03-31T16:35:46;12.70;99.90
5508;DHT22;2776;51.046;6.772;2023-03-31T16:38:30;12.60;99.90
5508;DHT22;2776;51.046;6.772;2023-03-31T16:41:09;12.60;99.90
5508;DHT22;2776;51.046;6.772;2023-03-31T16:43:38;12.60;99.90
5508;DHT22;2776;51.046;6.772;2023-03-31T16:46:10;12.60;99.90
5508;DHT22;2776;51.046;6.772;2023-03-31T16:48:47;12.50;99.90
5508;DHT22;2776;51.046;6.772;2023-03-31T16:51:29;12.50;99.90
5508;DHT22;2776;51.046;6.772;2023-03-31T16:54:13;12.50;99.90
5508;DHT22;2776;51.046;6.772;2023-03-31T16:56:56;12.50;99.90
5508;DHT22;2776;51.046;6.772;2023-03-31T16:59:34;12.40;99.90
5508;DHT22;2776;51.046;6.772;2023-03-31T17:02:09;12.40;99.90
5508;DHT22;2776;51.046;6.772;2023-03-31T17:04:45;12.40;99.90
5508;DHT22;2776;51.046;6.772;2023-03-31T17:07:21;12.30;99.90
5508;DHT22;2776;51.046;6.772;2023-03-31T17:10:01;12.30;99.90
5508;DHT22;2776;51.046;6.772;2023-03-31T17:12:46;12.30;99.90
5508;DHT22;2776;51.046;6.772;2023-03-31T17:15:18;12.30;99.90
5508;DHT22;2776;51.046;6.772;2023-03-31T17:17:54;12.30;99.90
5508;DHT22;2776;51.046;6.772;2023-03-31T17:20:31;12.30;99.90